Time;durP1;ratioP1;P1;durP2;ratioP2;P2;SDS_P1;SDS_P2;PMS_P1;PMS_P2;Temp;Humidity;BMP_temperature;BMP_pressure;BME280_temperature;BME280_humidity;BME280_pressure;Samples;Min_cycle;Max_cycle;Signal;HPM_P1;HPM_P2
2022/09/09 00:02:21;;;;;;;17.67;5.08;;;;;;;17.04;62.20;101129.97;1691019;83;28478;-61
2022/09/09 00:04:56;;;;;;;8.78;4.45;;;;;;;17.01;62.35;101124.38;1689798;83;26672;-62
2022/09/09 00:07:51;;;;;;;11.48;5.08;;;;;;;16.97;62.51;101127.08;1651645;83;25854;-62
2022/09/09 00:10:39;;;;;;;10.85;4.97;;;;;;;16.95;62.60;101126.39;1691136;83;26474;-61
2022/09/09 00:13:35;;;;;;;15.98;5.08;;;;;;;16.95;62.93;101125.55;1691021;84;27346;-62
2022/09/09 00:16:13;;;;;;;15.25;4.90;;;;;;;16.95;63.08;101125.03;1691123;84;28202;-62
2022/09/09 00:19:23;;;;;;;6.53;4.17;;;;;;;16.98;63.16;101126.06;1691020;83;25870;-62
2022/09/09 00:22:04;;;;;;;12.33;5.03;;;;;;;16.99;63.36;101119.61;1675174;83;25959;-61
2022/09/09 00:24:53;;;;;;;16.87;5.15;;;;;;;17.02;63.46;101119.77;1679812;83;25795;-61
2022/09/09 00:27:40;;;;;;;14.05;4.80;;;;;;;17.04;63.46;101113.66;1677411;84;25784;-61
2022/09/09 00:30:22;;;;;;;11.63;4.83;;;;;;;17.05;63.54;101116.73;1687074;85;27730;-62
2022/09/09 00:32:55;;;;;;;10.70;4.40;;;;;;;17.05;63.71;101112.13;1681303;83;27242;-61
2022/09/09 00:35:34;;;;;;;13.25;4.65;;;;;;;17.07;63.48;101116.05;1690405;83;25820;-62
2022/09/09 00:38:15;;;;;;;11.15;4.70;;;;;;;17.07;63.45;101111.11;1690966;84;25792;-62
2022/09/09 00:41:02;;;;;;;10.08;4.05;;;;;;;17.07;63.46;101116.55;1686868;83;25960;-61
2022/09/09 00:43:36;;;;;;;11.33;4.62;;;;;;;17.09;63.72;101118.06;1684827;83;27468;-61
2022/09/09 00:46:40;;;;;;;14.35;5.20;;;;;;;17.11;63.61;101116.03;1675700;83;25759;-62
2022/09/09 00:49:46;;;;;;;14.17;4.73;;;;;;;17.10;63.41;101106.17;1671240;84;25741;-63
2022/09/09 00:52:52;;;;;;;7.78;4.95;;;;;;;17.07;63.12;101111.97;1670098;85;25719;-62
2022/09/09 00:55:37;;;;;;;9.60;5.35;;;;;;;17.02;63.01;101107.55;1651536;85;25959;-62
2022/09/09 00:58:07;;;;;;;;;;;;;;;16.95;63.05;101103.81;1672955;85;27644;-62
2022/09/09 01:00:43;;;;;;;8.48;4.70;;;;;;;16.87;63.09;101106.84;1670430;85;25915;-62
2022/09/09 01:03:38;;;;;;;10.63;4.67;;;;;;;16.82;62.98;101101.58;1658241;85;26214;-62
2022/09/09 01:06:23;;;;;;;13.03;5.22;;;;;;;16.77;62.90;101109.36;1645243;86;26554;-62
2022/09/09 01:08:58;;;;;;;11.97;5.25;;;;;;;16.70;63.18;101108.69;1588483;89;25826;-62
2022/09/09 01:11:34;;;;;;;13.03;5.47;;;;;;;16.66;63.33;101106.48;1669667;85;27499;-62
2022/09/09 01:14:27;;;;;;;13.60;5.08;;;;;;;16.57;63.61;101109.19;1669957;85;25788;-62
2022/09/09 01:17:00;;;;;;;13.95;5.47;;;;;;;16.52;63.57;101109.34;1670294;85;25721;-62
2022/09/09 01:19:51;;;;;;;11.33;4.67;;;;;;;16.49;63.63;101110.53;1670600;85;26529;-62
2022/09/09 01:22:54;;;;;;;11.00;4.97;;;;;;;16.46;63.68;101110.86;1646634;84;26086;-61
2022/09/09 01:25:46;;;;;;;10.53;5.00;;;;;;;16.43;63.92;101110.69;1603518;87;28397;-62
2022/09/09 01:28:19;;;;;;;12.10;4.60;;;;;;;16.46;64.01;101115.45;1677158;84;25697;-62
2022/09/09 01:30:47;;;;;;;19.20;4.67;;;;;;;16.47;64.34;101117.99;1667780;84;25922;-62
2022/09/09 01:33:18;;;;;;;15.28;5.28;;;;;;;16.51;64.41;101118.50;1686799;83;26485;-61
2022/09/09 01:36:08;;;;;;;14.58;4.45;;;;;;;16.55;64.56;101116.64;1680041;84;26106;-61
2022/09/09 01:38:37;;;;;;;12.63;5.20;;;;;;;16.59;64.75;101123.95;1670626;85;27499;-62
2022/09/09 01:41:05;;;;;;;12.15;5.15;;;;;;;16.64;64.83;101122.09;1672008;84;25849;-61
2022/09/09 01:43:34;;;;;;;10.28;5.20;;;;;;;16.65;64.83;101123.79;1670423;85;25720;-61
2022/09/09 01:46:02;;;;;;;11.22;5.17;;;;;;;16.66;64.73;101124.14;1671003;85;25783;-62
2022/09/09 01:48:32;;;;;;;10.53;4.42;;;;;;;16.68;64.75;101116.67;1647688;85;25829;-62
2022/09/09 01:51:01;;;;;;;14.98;5.17;;;;;;;16.71;64.66;101117.70;1670065;84;27592;-61
2022/09/09 01:53:28;;;;;;;10.23;4.78;;;;;;;16.73;64.82;101110.22;1670303;84;25878;-62
2022/09/09 01:56:22;;;;;;;11.40;4.87;;;;;;;16.75;64.99;101114.98;1670270;84;25461;-62
2022/09/09 01:59:09;;;;;;;10.28;4.55;;;;;;;16.74;64.90;101110.56;1677090;83;25879;-62
2022/09/09 02:02:19;;;;;;;12.82;4.90;;;;;;;16.79;64.62;101111.41;1651698;84;25877;-62
2022/09/09 02:05:18;;;;;;;8.85;4.50;;;;;;;16.79;64.46;101115.00;1655839;85;26751;-62
2022/09/09 02:07:50;;;;;;;18.77;5.42;;;;;;;16.76;64.16;101118.03;1659762;84;25929;-62
2022/09/09 02:10:49;;;;;;;12.90;5.37;;;;;;;16.72;64.13;101111.23;1655681;84;25729;-62
2022/09/09 02:13:21;;;;;;;9.53;5.20;;;;;;;16.67;64.04;101109.05;1656729;85;25765;-63
2022/09/09 02:16:30;;;;;;;9.50;5.03;;;;;;;16.64;63.95;101108.51;1657138;84;25821;-62
2022/09/09 02:19:12;;;;;;;7.60;4.78;;;;;;;16.58;63.97;101106.81;1656448;84;27514;-62
2022/09/09 02:21:48;;;;;;;18.40;5.60;;;;;;;16.52;64.12;101109.34;1656402;84;25779;-62
2022/09/09 02:24:16;;;;;;;11.78;5.10;;;;;;;16.47;64.19;101104.94;1651844;84;25839;-63
2022/09/09 02:26:52;;;;;;;9.85;5.05;;;;;;;16.45;64.09;101107.80;1668827;84;25809;-62
2022/09/09 02:29:26;;;;;;;7.87;5.03;;;;;;;16.42;64.15;101106.80;1670272;84;32892;-62
2022/09/09 02:31:58;;;;;;;13.05;5.10;;;;;;;16.40;64.16;101102.03;1668391;85;27684;-63
2022/09/09 02:34:29;;;;;;;8.18;4.95;;;;;;;16.33;64.18;101090.14;1668859;84;26130;-63
2022/09/09 02:36:59;;;;;;;15.70;5.75;;;;;;;16.30;64.33;101080.47;1668834;86;25848;-62
2022/09/09 02:39:27;;;;;;;14.00;5.05;;;;;;;16.26;64.48;101079.95;1669838;84;25950;-62
2022/09/09 02:41:54;;;;;;;9.68;4.28;;;;;;;16.26;64.95;101073.66;1672272;84;25782;-62
2022/09/09 02:44:23;;;;;;;14.10;5.50;;;;;;;16.26;65.10;101078.60;1673891;85;27624;-63
2022/09/09 02:47:32;;;;;;;15.43;4.97;;;;;;;16.26;65.97;101082.67;1672869;84;25785;-62
2022/09/09 02:50:20;;;;;;;8.60;4.60;;;;;;;16.23;65.45;101092.50;1667057;84;25525;-63
2022/09/09 02:53:21;;;;;;;10.65;4.58;;;;;;;16.22;66.19;101087.24;1667770;84;26406;-62
2022/09/09 02:56:01;;;;;;;9.55;4.97;;;;;;;16.21;65.67;101093.16;1666955;84;25829;-62
2022/09/09 02:58:29;;;;;;;9.65;4.72;;;;;;;16.27;66.10;101097.08;1667051;84;27567;-62
2022/09/09 03:01:00;;;;;;;12.75;4.67;;;;;;;16.26;65.73;101103.03;1666942;85;25840;-63
2022/09/09 03:03:28;;;;;;;13.18;4.75;;;;;;;16.28;65.77;101096.91;1645156;85;25805;-62
2022/09/09 03:05:56;;;;;;;12.13;5.17;;;;;;;16.34;65.97;101096.75;1665371;84;25797;-62
2022/09/09 03:08:24;;;;;;;8.48;4.78;;;;;;;16.39;66.01;101093.05;1655778;86;25766;-62
2022/09/09 03:10:53;;;;;;;17.37;6.30;;;;;;;16.38;65.74;101095.42;1655767;85;27550;-62
2022/09/09 03:13:19;;;;;;;12.73;4.80;;;;;;;16.41;65.82;101090.16;1656227;84;25861;-62
2022/09/09 03:15:48;;;;;;;12.37;5.25;;;;;;;16.42;65.93;101092.70;1655588;84;25842;-62
2022/09/09 03:18:17;;;;;;;13.78;4.90;;;;;;;16.44;65.84;101096.62;1678796;84;25813;-63
2022/09/09 03:20:50;;;;;;;12.65;8.55;;;;;;;16.44;65.85;101093.91;1655764;84;25818;-63
2022/09/09 03:23:18;;;;;;;20.12;6.05;;;;;;;16.41;65.77;101105.92;1655867;85;27532;-62
2022/09/09 03:25:51;;;;;;;15.00;5.67;;;;;;;16.41;65.66;101099.14;1668348;86;25737;-62
2022/09/09 03:28:20;;;;;;;17.23;6.65;;;;;;;16.40;65.32;101097.47;1669348;84;25730;-62
2022/09/09 03:30:49;;;;;;;20.82;5.37;;;;;;;16.38;65.36;101099.98;1669609;84;26490;-63
2022/09/09 03:33:17;;;;;;;20.75;5.25;;;;;;;16.37;65.28;101099.64;1668627;86;26123;-62
2022/09/09 03:35:51;;;;;;;16.85;5.65;;;;;;;16.35;65.12;101097.09;1669453;84;27538;-63
2022/09/09 03:38:16;;;;;;;14.80;6.42;;;;;;;16.32;64.99;101097.94;1668743;84;25736;-62
2022/09/09 03:40:56;;;;;;;15.75;5.78;;;;;;;16.29;65.01;101099.13;1672304;84;26418;-63
2022/09/09 03:43:26;;;;;;;15.08;6.35;;;;;;;16.27;65.00;101103.34;1671100;85;25935;-62
2022/09/09 03:45:56;;;;;;;15.88;6.30;;;;;;;16.26;65.16;101100.81;1655481;85;25572;-62
2022/09/09 03:48:27;;;;;;;17.90;6.75;;;;;;;16.25;65.20;101093.67;1655515;83;29640;-62
2022/09/09 03:51:00;;;;;;;17.48;6.58;;;;;;;16.24;65.25;101090.13;1648245;85;25727;-63
2022/09/09 03:53:27;;;;;;;14.73;5.72;;;;;;;16.23;65.26;101088.42;1655665;84;25822;-62
2022/09/09 03:55:59;;;;;;;15.65;6.08;;;;;;;16.23;65.25;101083.00;1655599;85;25732;-63
2022/09/09 03:58:28;;;;;;;15.80;6.70;;;;;;;16.24;65.46;101080.63;1655336;85;25754;-62
2022/09/09 04:01:01;;;;;;;19.35;6.08;;;;;;;16.28;65.64;101088.76;1655409;84;28543;-62
2022/09/09 04:03:29;;;;;;;22.93;7.10;;;;;;;16.30;65.71;101079.12;1646160;85;25872;-61
2022/09/09 04:05:59;;;;;;;35.17;7.47;;;;;;;16.36;66.08;101082.52;1638753;86;25732;-62
2022/09/09 04:08:27;;;;;;;23.00;6.87;;;;;;;16.45;66.10;101084.72;1636454;86;26605;-63
2022/09/09 04:11:02;;;;;;;17.95;6.20;;;;;;;16.51;66.28;101083.20;1639553;86;26201;-62
2022/09/09 04:13:26;;;;;;;24.60;7.72;;;;;;;16.58;66.33;101082.38;1645506;84;27518;-63
2022/09/09 04:15:56;;;;;;;23.85;7.10;;;;;;;16.69;66.70;101075.75;1634967;86;25831;-62
2022/09/09 04:18:24;;;;;;;20.05;7.05;;;;;;;16.80;66.35;101077.80;1627280;86;26440;-62
2022/09/09 04:20:53;;;;;;;30.12;6.83;;;;;;;16.88;66.37;101091.37;1628152;86;25787;-62
2022/09/09 04:23:23;;;;;;;32.25;6.60;;;;;;;16.96;66.16;101098.72;1627438;85;25754;-65
2022/09/09 04:25:53;;;;;;;21.97;7.05;;;;;;;17.03;66.18;101092.94;1628552;86;28314;-62
2022/09/09 04:28:23;;;;;;;26.25;7.83;;;;;;;17.15;66.38;101098.37;1636201;86;25359;-63
2022/09/09 04:30:52;;;;;;;21.55;7.30;;;;;;;17.27;66.16;101096.64;1640667;85;25827;-63
2022/09/09 04:33:19;;;;;;;20.68;6.60;;;;;;;17.36;66.06;101100.55;1641618;86;25808;-63
2022/09/09 04:35:49;;;;;;;24.60;7.12;;;;;;;17.46;66.00;101106.30;1639338;86;25826;-62
2022/09/09 04:38:18;;;;;;;16.80;6.20;;;;;;;17.56;65.73;101106.09;1624794;86;27732;-63
2022/09/09 04:40:51;;;;;;;15.80;6.75;;;;;;;17.60;65.44;101097.41;1644698;86;25865;-63
2022/09/09 04:43:22;;;;;;;32.60;6.67;;;;;;;17.64;65.26;101103.36;1648610;86;25838;-62
2022/09/09 04:45:51;;;;;;;27.37;7.60;;;;;;;17.64;65.22;101101.50;1652332;84;26593;-62
2022/09/09 04:48:21;;;;;;;36.60;7.95;;;;;;;17.63;65.12;101100.29;1697625;83;25802;-62
2022/09/09 04:50:58;;;;;;;25.90;7.60;;;;;;;17.62;65.19;101102.17;1662271;83;27456;-61
2022/09/09 04:53:26;;;;;;;15.18;6.15;;;;;;;17.65;65.21;101103.69;1664069;84;26562;-62
2022/09/09 04:56:03;;;;;;;20.72;6.12;;;;;;;17.62;65.39;101103.54;1662668;85;25826;-63
2022/09/09 04:58:31;;;;;;;20.17;7.37;;;;;;;17.63;65.20;101098.93;1662336;86;25786;-62
2022/09/09 05:01:18;;;;;;;31.42;8.45;;;;;;;17.62;65.34;101097.23;1660897;84;25814;-61
2022/09/09 05:03:47;;;;;;;29.32;7.97;;;;;;;17.62;65.43;101092.66;1662097;85;27481;-63
2022/09/09 05:06:19;;;;;;;18.80;6.70;;;;;;;17.62;65.50;101091.30;1667038;84;25800;-62
2022/09/09 05:08:49;;;;;;;17.37;6.20;;;;;;;17.64;65.46;101089.75;1641067;85;25869;-62
2022/09/09 05:11:26;;;;;;;18.73;6.58;;;;;;;17.60;65.51;101091.14;1639646;86;26478;-62
2022/09/09 05:13:56;;;;;;;28.15;6.20;;;;;;;17.60;65.88;101102.86;1639636;86;25838;-62
2022/09/09 05:16:23;;;;;;;19.73;6.10;;;;;;;17.64;65.85;101097.42;1639806;86;27488;-62
2022/09/09 05:18:51;;;;;;;15.50;5.67;;;;;;;17.73;66.08;101096.86;1639504;87;25726;-62
2022/09/09 05:21:21;;;;;;;15.23;4.72;;;;;;;17.81;66.19;101098.19;1639742;87;25900;-62
2022/09/09 05:23:48;;;;;;;11.68;4.40;;;;;;;17.88;66.19;101095.62;1645345;85;26747;-62
2022/09/09 05:26:20;;;;;;;24.98;4.62;;;;;;;17.94;66.31;101090.82;1672359;85;26401;-62
2022/09/09 05:28:48;;;;;;;16.62;4.55;;;;;;;18.03;66.51;101090.31;1672240;85;27479;-62
2022/09/09 05:31:18;;;;;;;13.53;4.67;;;;;;;18.08;66.36;101087.89;1672351;84;26209;-62
2022/09/09 05:33:49;;;;;;;19.27;4.20;;;;;;;18.19;66.47;101096.69;1672193;85;25777;-62
2022/09/09 05:36:20;;;;;;;16.77;5.37;;;;;;;18.26;66.21;101094.95;1672046;84;25787;-62
2022/09/09 05:38:50;;;;;;;9.60;4.47;;;;;;;18.37;66.08;101090.45;1681250;83;25778;-65
2022/09/09 05:41:17;;;;;;;17.92;4.62;;;;;;;18.45;65.97;101088.20;1680490;84;27473;-61
2022/09/09 05:43:46;;;;;;;12.00;4.17;;;;;;;18.54;65.82;101091.70;1680739;84;25820;-62
2022/09/09 05:46:20;;;;;;;17.82;4.83;;;;;;;18.63;65.60;101085.70;1680604;84;25686;-62
2022/09/09 05:48:50;;;;;;;19.42;5.47;;;;;;;18.69;65.22;101088.52;1683955;84;26763;-63
2022/09/09 05:51:25;;;;;;;13.70;3.92;;;;;;;18.75;65.01;101094.63;1695214;83;26125;-63
2022/09/09 05:53:54;;;;;;;15.18;4.62;;;;;;;18.80;64.66;101085.91;1697657;83;27474;-61
2022/09/09 05:56:26;;;;;;;22.75;4.75;;;;;;;18.85;64.62;101086.19;1695795;83;26312;-62
2022/09/09 05:58:55;;;;;;;18.32;4.83;;;;;;;18.91;64.51;101090.92;1693597;83;25469;-62
2022/09/09 06:01:32;;;;;;;21.33;4.85;;;;;;;18.98;64.29;101095.66;1683221;83;26611;-62
2022/09/09 06:04:01;;;;;;;25.10;4.90;;;;;;;19.05;64.29;101102.06;1689104;82;25779;-62
2022/09/09 06:06:36;;;;;;;21.45;4.75;;;;;;;19.12;64.21;101097.56;1713789;83;28247;-62
2022/09/09 06:09:06;;;;;;;16.48;4.72;;;;;;;19.18;64.09;101094.13;1699889;82;25841;-62
2022/09/09 06:11:40;;;;;;;16.52;4.30;;;;;;;19.26;63.90;101090.98;1696702;83;25803;-62
2022/09/09 06:14:08;;;;;;;10.15;4.58;;;;;;;19.35;63.75;101088.49;1699150;83;25761;-61
2022/09/09 06:16:37;;;;;;;10.20;4.62;;;;;;;19.37;63.47;101080.95;1668610;84;25909;-61
2022/09/09 06:19:06;;;;;;;15.40;4.67;;;;;;;19.45;63.46;101080.02;1693537;82;27478;-61
2022/09/09 06:21:37;;;;;;;17.73;4.45;;;;;;;19.52;63.41;101080.95;1704176;82;25820;-62
2022/09/09 06:24:07;;;;;;;9.98;4.55;;;;;;;19.61;63.46;101085.82;1686995;84;25818;-62
2022/09/09 06:26:42;;;;;;;21.40;4.10;;;;;;;19.69;62.85;101092.55;1686729;85;25808;-61
2022/09/09 06:29:12;;;;;;;21.77;4.58;;;;;;;19.79;62.92;101085.42;1686865;83;25999;-61
2022/09/09 06:31:40;;;;;;;15.68;4.70;;;;;;;19.92;62.83;101087.51;1686679;85;27450;-61
2022/09/09 06:34:09;;;;;;;15.50;4.95;;;;;;;20.10;62.62;101087.95;1694453;83;25772;-61
2022/09/09 06:36:39;;;;;;;9.63;4.08;;;;;;;20.19;61.97;101087.33;1684514;83;25786;-62
2022/09/09 06:39:10;;;;;;;13.20;4.37;;;;;;;20.27;61.68;101084.98;1691242;83;26450;-61
2022/09/09 06:41:38;;;;;;;13.88;3.98;;;;;;;20.32;61.43;101082.00;1698085;83;26461;-61
2022/09/09 06:44:07;;;;;;;13.20;4.37;;;;;;;20.41;61.04;101072.31;1711937;83;27184;-62
2022/09/09 06:46:35;;;;;;;12.28;4.37;;;;;;;20.44;60.75;101073.30;1710831;83;25481;-61
2022/09/09 06:49:03;;;;;;;14.60;4.37;;;;;;;20.46;60.51;101072.59;1715617;83;25794;-62
2022/09/09 06:51:34;;;;;;;14.90;4.28;;;;;;;20.52;60.42;101079.17;1704229;83;27896;-62
2022/09/09 06:54:04;;;;;;;16.23;4.37;;;;;;;20.61;60.19;101080.20;1704547;82;25816;-61
2022/09/09 06:56:35;;;;;;;13.38;4.87;;;;;;;20.71;60.02;101081.23;1706378;83;27361;-62
2022/09/09 06:59:08;;;;;;;15.88;4.47;;;;;;;20.80;59.56;101076.52;1706943;83;25837;-61
2022/09/09 07:01:41;;;;;;;11.68;3.98;;;;;;;20.85;59.21;101073.20;1705954;83;25813;-62
2022/09/09 07:04:13;;;;;;;17.00;4.30;;;;;;;20.91;59.10;101073.77;1667811;83;25827;-61
2022/09/09 07:06:46;;;;;;;17.20;4.33;;;;;;;21.00;58.76;101069.01;1655554;86;25719;-61
2022/09/09 07:09:22;;;;;;;33.18;5.83;;;;;;;21.08;58.31;101060.13;1655798;85;27413;-62
2022/09/09 07:11:52;;;;;;;14.25;4.30;;;;;;;21.17;58.28;101059.46;1655782;86;25801;-62
2022/09/09 07:14:20;;;;;;;23.10;4.20;;;;;;;21.33;58.21;101058.81;1655505;86;25745;-62
2022/09/09 07:16:49;;;;;;;23.75;4.87;;;;;;;21.50;57.67;101067.56;1656523;84;25926;-62
2022/09/09 07:19:17;;;;;;;9.08;4.50;;;;;;;21.67;57.64;101074.43;1656246;85;25805;-63
2022/09/09 07:21:45;;;;;;;13.13;4.40;;;;;;;21.91;57.47;101076.86;1657023;84;27557;-62
2022/09/09 07:24:15;;;;;;;20.72;4.25;;;;;;;22.14;56.93;101075.98;1659036;85;25737;-61
2022/09/09 07:26:43;;;;;;;21.10;3.80;;;;;;;22.41;56.76;101087.59;1669168;84;25708;-63
2022/09/09 07:29:13;;;;;;;27.87;4.30;;;;;;;22.62;55.98;101086.58;1667508;84;25834;-62
2022/09/09 07:31:42;;;;;;;32.90;4.47;;;;;;;22.80;55.39;101083.20;1666649;86;26508;-62
2022/09/09 07:34:11;;;;;;;18.75;3.60;;;;;;;23.05;54.72;101083.94;1665938;85;27539;-63
2022/09/09 07:36:40;;;;;;;9.48;4.47;;;;;;;23.20;54.32;101077.75;1667017;84;25805;-63
2022/09/09 07:39:12;;;;;;;21.02;3.83;;;;;;;23.40;53.93;101080.46;1667775;83;25733;-63
2022/09/09 07:41:46;;;;;;;16.85;4.30;;;;;;;23.58;53.26;101073.45;1655885;86;25840;-62
2022/09/09 07:44:18;;;;;;;23.22;3.60;;;;;;;23.72;52.64;101068.22;1629654;86;26033;-62
2022/09/09 07:46:47;;;;;;;15.18;3.98;;;;;;;23.85;52.51;101059.63;1658090;84;27476;-62
2022/09/09 07:49:17;;;;;;;16.25;3.60;;;;;;;24.02;52.38;101055.89;1655865;83;25699;-63
2022/09/09 07:51:49;;;;;;;12.90;3.87;;;;;;;24.10;51.57;101054.77;1656855;84;25798;-62
2022/09/09 07:54:23;;;;;;;17.65;3.72;;;;;;;24.17;51.11;101049.56;1655491;86;26584;-62
2022/09/09 07:56:52;;;;;;;27.40;5.08;;;;;;;24.22;51.34;101052.48;1655771;84;25834;-63
2022/09/09 07:59:20;;;;;;;21.00;3.45;;;;;;;24.32;51.29;101056.66;1705204;83;27180;-62
2022/09/09 08:01:56;;;;;;;25.80;3.52;;;;;;;24.45;50.97;101063.46;1682317;85;25802;-63
2022/09/09 08:04:23;;;;;;;11.03;4.08;;;;;;;24.53;50.53;101067.83;1677492;84;25761;-63
2022/09/09 08:06:57;;;;;;;17.20;4.17;;;;;;;24.57;50.26;101070.98;1676833;84;25897;-63
2022/09/09 08:09:28;;;;;;;16.82;3.80;;;;;;;24.59;50.08;101053.21;1677182;84;25847;-63
2022/09/09 08:11:58;;;;;;;19.67;4.17;;;;;;;24.60;50.27;101048.02;1678257;82;27533;-62
2022/09/09 08:14:25;;;;;;;16.93;3.65;;;;;;;24.64;49.82;101049.80;1676561;84;25856;-63
2022/09/09 08:16:54;;;;;;;8.05;3.60;;;;;;;24.73;49.25;101058.11;1677774;84;25854;-63
2022/09/09 08:19:23;;;;;;;21.55;3.80;;;;;;;24.83;49.55;101065.84;1676546;85;26715;-62
2022/09/09 08:21:50;;;;;;;14.55;3.80;;;;;;;24.99;49.23;101064.45;1676677;84;25525;-64
2022/09/09 08:24:19;;;;;;;9.50;3.67;;;;;;;25.16;49.28;101061.95;1661507;85;27475;-64
2022/09/09 08:26:49;;;;;;;16.80;3.77;;;;;;;25.34;49.09;101067.17;1638232;86;26011;-62
2022/09/09 08:29:18;;;;;;;23.87;2.98;;;;;;;25.54;48.83;101062.33;1638630;86;25775;-63
2022/09/09 08:31:51;;;;;;;4.62;3.08;;;;;;;25.68;48.06;101063.57;1638802;86;25827;-63
2022/09/09 08:34:19;;;;;;;7.60;3.12;;;;;;;25.83;47.87;101053.51;1638809;86;26158;-63
2022/09/09 08:36:50;;;;;;;19.17;4.78;;;;;;;26.00;47.77;101054.55;1638179;86;28734;-62
2022/09/09 08:39:21;;;;;;;12.28;3.85;;;;;;;26.20;46.92;101055.71;1640936;86;25845;-62
2022/09/09 08:42:06;;;;;;;13.10;3.12;;;;;;;26.32;46.62;101051.61;1644675;85;25766;-62
2022/09/09 08:45:11;;;;;;;8.13;3.00;;;;;;;26.46;46.18;101050.02;1645451;85;25797;-62
2022/09/09 08:47:59;;;;;;;14.38;3.55;;;;;;;26.71;45.87;101051.22;1650423;84;25851;-62
2022/09/09 08:50:38;;;;;;;10.85;2.90;;;;;;;26.93;44.92;101039.09;1645056;86;27603;-63
2022/09/09 08:53:33;;;;;;;22.07;3.42;;;;;;;27.05;45.23;101039.09;1686109;83;25778;-63
2022/09/09 08:56:05;;;;;;;12.95;3.58;;;;;;;27.24;45.05;101040.34;1693584;83;25744;-63
2022/09/09 08:58:53;;;;;;;10.30;2.98;;;;;;;27.44;43.84;101039.45;1710784;83;26585;-63
2022/09/09 09:01:36;;;;;;;11.78;3.62;;;;;;;27.65;43.76;101033.00;1684399;84;25852;-62
2022/09/09 09:04:34;;;;;;;10.75;2.83;;;;;;;27.92;42.67;101043.48;1684242;84;27502;-63
2022/09/09 09:07:50;;;;;;;12.40;3.35;;;;;;;28.13;42.18;101039.75;1684282;83;25721;-63
2022/09/09 09:10:39;;;;;;;9.20;2.98;;;;;;;28.24;41.25;101032.77;1684264;85;25845;-63
2022/09/09 09:13:17;;;;;;;9.93;2.90;;;;;;;28.36;40.83;101040.17;1684282;83;26737;-63
2022/09/09 09:15:50;;;;;;;18.02;3.27;;;;;;;28.47;40.45;101043.42;1684450;83;25730;-64
2022/09/09 09:18:18;;;;;;;19.75;3.45;;;;;;;28.53;40.63;101044.36;1684510;85;28523;-62
2022/09/09 09:20:56;;;;;;;13.13;3.33;;;;;;;28.58;40.19;101035.61;1684183;85;25793;-62
2022/09/09 09:23:26;;;;;;;11.33;2.70;;;;;;;28.50;39.94;101036.55;1683759;83;25799;-63
2022/09/09 09:26:00;;;;;;;24.10;3.02;;;;;;;28.37;38.47;101035.80;1646475;85;26450;-63
2022/09/09 09:28:30;;;;;;;;;;;;;;;28.17;37.55;101039.56;1670536;85;25792;-63
2022/09/09 09:31:04;;;;;;;12.10;2.80;;;;;;;27.90;38.25;101035.42;1646718;85;27491;-62
2022/09/09 09:33:54;;;;;;;19.92;3.25;;;;;;;27.78;38.07;101029.94;1669082;85;25829;-62
2022/09/09 09:36:44;;;;;;;13.28;2.92;;;;;;;27.55;38.73;101025.88;1668589;85;25492;-62
2022/09/09 09:39:36;;;;;;;11.18;3.15;;;;;;;27.39;38.60;101018.58;1668887;84;25871;-63
2022/09/09 09:42:14;;;;;;;9.73;3.08;;;;;;;27.22;39.30;101023.17;1669123;84;25832;-64
2022/09/09 09:44:42;;;;;;;15.45;3.30;;;;;;;27.12;39.53;101027.94;1669224;85;28174;-64
2022/09/09 09:47:18;;;;;;;8.60;2.80;;;;;;;27.06;39.63;101022.00;1668400;85;26225;-63
2022/09/09 09:49:56;;;;;;;11.85;3.87;;;;;;;27.03;39.88;101024.68;1668990;85;25556;-62
2022/09/09 09:52:26;;;;;;;17.57;3.42;;;;;;;27.04;39.65;101023.60;1649163;85;25865;-62
2022/09/09 09:54:56;;;;;;;15.88;4.20;;;;;;;27.03;39.76;101026.06;1675965;84;25935;-62
2022/09/09 09:57:30;;;;;;;19.85;4.25;;;;;;;27.04;39.90;101022.22;1675607;84;27328;-62
2022/09/09 10:00:16;;;;;;;22.93;3.40;;;;;;;27.03;39.71;101025.54;1675728;85;25833;-63
2022/09/09 10:02:47;;;;;;;13.48;3.08;;;;;;;26.98;39.36;101030.95;1679715;84;25809;-62
2022/09/09 10:05:23;;;;;;;15.93;3.37;;;;;;;26.86;39.28;101030.92;1689861;82;25854;-62
2022/09/09 10:08:13;;;;;;;22.48;3.62;;;;;;;26.78;39.49;101042.31;1689239;84;25713;-62
2022/09/09 10:11:09;;;;;;;18.30;3.50;;;;;;;26.72;39.69;101044.63;1689542;83;27411;-62
2022/09/09 10:14:00;;;;;;;12.70;3.35;;;;;;;26.67;39.90;101048.65;1689450;84;25703;-63
2022/09/09 10:16:44;;;;;;;22.13;4.70;;;;;;;26.55;39.93;101048.08;1689178;83;25670;-62
2022/09/09 10:19:16;;;;;;;18.23;3.37;;;;;;;26.51;40.22;101047.41;1689662;84;26104;-62
2022/09/09 10:22:16;;;;;;;12.63;3.83;;;;;;;26.46;40.00;101049.49;1689541;84;26121;-62
2022/09/09 10:25:16;;;;;;;6.78;2.70;;;;;;;26.42;40.21;101055.16;1677676;84;27496;-63
2022/09/09 10:28:00;;;;;;;17.02;3.35;;;;;;;26.39;40.28;101055.66;1635042;85;25909;-62
2022/09/09 10:31:00;;;;;;;9.58;2.85;;;;;;;26.35;40.49;101055.81;1666326;85;25736;-62
2022/09/09 10:33:58;;;;;;;9.58;3.65;;;;;;;26.32;40.26;101059.02;1668463;85;25794;-63
2022/09/09 10:36:28;;;;;;;19.73;3.58;;;;;;;26.23;40.49;101057.16;1668872;85;25763;-62
2022/09/09 10:39:18;;;;;;;13.65;3.87;;;;;;;26.18;40.91;101058.38;1669180;85;27428;-62
2022/09/09 10:41:57;;;;;;;11.85;3.47;;;;;;;26.13;40.89;101066.00;1670532;84;25477;-62
2022/09/09 10:44:47;;;;;;;11.28;2.98;;;;;;;26.08;41.01;101068.08;1676355;84;25566;-63
2022/09/09 10:47:44;;;;;;;10.30;2.70;;;;;;;26.06;41.20;101069.33;1676660;84;25966;-63
2022/09/09 10:50:33;;;;;;;10.32;3.22;;;;;;;26.02;41.28;101070.87;1676397;84;25484;-64
2022/09/09 10:53:33;;;;;;;19.92;3.45;;;;;;;25.97;41.57;101063.30;1688665;84;27495;-63
2022/09/09 10:56:14;;;;;;;8.63;3.50;;;;;;;25.98;42.00;101069.64;1688418;83;25524;-63
2022/09/09 10:58:55;;;;;;;12.78;3.02;;;;;;;25.96;42.86;101067.66;1693032;83;25733;-63
2022/09/09 11:01:31;;;;;;;13.75;2.83;;;;;;;25.87;43.57;101067.97;1693964;83;25868;-63
2022/09/09 11:04:12;;;;;;;9.18;3.33;;;;;;;25.85;43.72;101067.38;1657805;84;26004;-63
2022/09/09 11:06:44;;;;;;;17.55;3.12;;;;;;;25.87;44.38;101068.52;1687894;84;27409;-62
2022/09/09 11:09:19;;;;;;;10.38;3.22;;;;;;;25.85;44.96;101068.77;1693987;84;25842;-62
2022/09/09 11:11:55;;;;;;;8.10;2.80;;;;;;;25.78;44.87;101061.09;1599971;87;25772;-63
2022/09/09 11:14:49;;;;;;;9.90;3.95;;;;;;;25.80;45.29;101063.09;1683480;84;25512;-62
2022/09/09 11:17:21;;;;;;;7.22;3.27;;;;;;;25.73;45.47;101059.58;1600098;87;25816;-62
2022/09/09 11:19:48;;;;;;;12.98;3.17;;;;;;;25.71;45.63;101066.70;1681379;85;27515;-62
2022/09/09 11:22:41;;;;;;;10.28;3.72;;;;;;;25.71;45.86;101057.58;1593339;88;25786;-62
2022/09/09 11:25:29;;;;;;;6.97;3.52;;;;;;;25.75;45.98;101061.02;1688001;84;25729;-63
2022/09/09 11:28:30;;;;;;;12.03;3.85;;;;;;;25.82;46.29;101056.81;1690808;83;25841;-63
2022/09/09 11:31:32;;;;;;;16.15;3.90;;;;;;;25.91;46.34;101043.55;1691786;83;26108;-63
2022/09/09 11:34:28;;;;;;;10.00;3.72;;;;;;;26.07;46.35;101050.34;1691435;83;28389;-63
2022/09/09 11:37:21;;;;;;;8.90;3.35;;;;;;;26.32;46.83;101046.09;1691607;83;25809;-62
2022/09/09 11:40:08;;;;;;;18.48;3.83;;;;;;;26.56;47.11;101041.48;1691672;83;25784;-62
2022/09/09 11:42:35;;;;;;;11.93;5.22;;;;;;;26.73;46.68;101049.07;1691578;84;25809;-63
2022/09/09 11:45:28;;;;;;;11.45;4.37;;;;;;;26.83;46.47;101040.22;1691724;83;25830;-62
2022/09/09 11:47:59;;;;;;;20.70;4.47;;;;;;;26.90;46.37;101030.45;1691652;83;27613;-63
2022/09/09 11:50:31;;;;;;;17.23;4.58;;;;;;;27.00;46.79;101027.94;1691331;83;26024;-63
2022/09/09 11:53:20;;;;;;;15.53;5.05;;;;;;;27.02;46.24;101024.41;1671440;83;25847;-62
2022/09/09 11:55:47;;;;;;;18.37;3.90;;;;;;;27.02;46.19;101017.50;1664755;85;25821;-62
2022/09/09 11:58:19;;;;;;;13.70;4.03;;;;;;;27.04;46.21;101019.46;1666720;85;25852;-62
2022/09/09 12:00:49;;;;;;;17.73;3.95;;;;;;;27.07;46.43;101021.75;1667048;84;28295;-63
2022/09/09 12:03:41;;;;;;;12.07;4.12;;;;;;;27.06;46.44;101014.55;1683949;83;25853;-63